createdAt,value
2022-11-16T00:04:40.044Z,11.76
2022-11-16T00:09:43.249Z,11.65
2022-11-16T00:14:46.461Z,11.97
2022-11-16T00:19:49.774Z,12.31
2022-11-16T00:24:53.087Z,12.48
2022-11-16T00:29:56.402Z,12.51
2022-11-16T00:34:59.518Z,12.45
2022-11-16T00:40:02.723Z,11.86
2022-11-16T00:45:06.538Z,11.90
2022-11-16T00:50:10.168Z,11.42
2022-11-16T00:55:13.379Z,10.47
2022-11-16T01:00:17.332Z,9.80
2022-11-16T01:05:21.544Z,9.01
2022-11-16T01:10:26.366Z,8.28
2022-11-16T01:15:29.498Z,7.89
2022-11-16T01:20:32.817Z,7.97
2022-11-16T01:25:35.820Z,7.97
2022-11-16T01:30:38.827Z,7.98
2022-11-16T01:35:45.260Z,8.29
2022-11-16T01:40:48.320Z,8.46
2022-11-16T01:45:51.623Z,8.67
2022-11-16T01:50:57.667Z,8.89
2022-11-16T01:56:01.027Z,9.10
2022-11-16T02:01:04.626Z,8.79
2022-11-16T02:06:25.572Z,8.88
2022-11-16T02:12:13.538Z,8.45
2022-11-16T02:17:33.328Z,8.70
2022-11-16T02:23:04.696Z,8.95
2022-11-16T02:28:45.594Z,8.66
2022-11-16T02:33:50.524Z,9.13
2022-11-16T02:39:05.839Z,8.83
2022-11-16T02:44:18.572Z,8.96
2022-11-16T02:49:24.262Z,9.73
2022-11-16T02:54:28.136Z,9.45
2022-11-16T02:59:39.573Z,9.45
2022-11-16T03:04:48.775Z,9.31
2022-11-16T03:09:54.806Z,9.57
2022-11-16T03:15:09.142Z,10.15
2022-11-16T03:20:14.641Z,10.07
2022-11-16T03:25:20.037Z,9.40
2022-11-16T03:30:25.788Z,9.03
2022-11-16T03:35:58.170Z,9.04
2022-11-16T03:41:05.986Z,9.31
2022-11-16T03:46:09.426Z,8.70
2022-11-16T03:51:12.716Z,9.68
2022-11-16T03:56:15.723Z,9.44
2022-11-16T04:01:18.867Z,9.77
2022-11-16T04:06:40.678Z,9.89
2022-11-16T04:12:02.631Z,8.13
2022-11-16T04:17:35.148Z,7.94
2022-11-16T04:23:07.524Z,8.33
2022-11-16T04:28:13.528Z,9.66
2022-11-16T04:33:35.279Z,10.33
2022-11-16T04:38:38.358Z,8.64
2022-11-16T04:43:41.361Z,9.56
2022-11-16T04:48:44.469Z,9.98
2022-11-16T04:53:47.578Z,9.23
2022-11-16T04:58:50.586Z,10.39
2022-11-16T05:03:53.795Z,8.79
2022-11-16T05:08:56.701Z,9.07
2022-11-16T05:13:59.809Z,9.54
2022-11-16T05:19:22.272Z,8.79
2022-11-16T05:24:34.188Z,9.45
2022-11-16T05:29:38.086Z,8.95
2022-11-16T05:34:41.017Z,9.66
2022-11-16T05:39:44.229Z,9.55
2022-11-16T05:44:47.345Z,8.83
2022-11-16T05:49:50.448Z,9.53
2022-11-16T05:54:53.454Z,8.74
2022-11-16T05:59:56.460Z,9.87
2022-11-16T06:04:59.571Z,8.61
2022-11-16T06:10:02.579Z,9.65
2022-11-16T06:15:06.180Z,8.88
2022-11-16T06:20:10.181Z,9.73
2022-11-16T06:25:13.130Z,8.58
2022-11-16T06:30:16.753Z,9.39
2022-11-16T06:35:19.655Z,8.73
2022-11-16T06:40:22.763Z,9.34
2022-11-16T06:45:27.100Z,9.20
2022-11-16T06:50:32.872Z,8.42
2022-11-16T06:55:35.981Z,9.33
2022-11-16T07:00:39.090Z,8.26
2022-11-16T07:05:42.404Z,9.52
2022-11-16T07:10:45.409Z,8.05
2022-11-16T07:15:48.320Z,9.04
2022-11-16T07:20:51.320Z,8.76
2022-11-16T07:25:54.223Z,9.24
2022-11-16T07:31:04.194Z,8.24
2022-11-16T07:36:10.021Z,9.64
2022-11-16T07:41:16.472Z,8.06
2022-11-16T07:46:45.933Z,9.08
2022-11-16T07:51:45.936Z,8.50
2022-11-16T07:56:48.924Z,8.31
2022-11-16T08:01:52.074Z,8.67
2022-11-16T08:06:55.219Z,7.72
2022-11-16T08:11:58.149Z,8.55
2022-11-16T08:17:01.188Z,7.72
2022-11-16T08:22:04.262Z,8.86
2022-11-16T08:27:07.369Z,8.02
2022-11-16T08:32:10.376Z,7.76
2022-11-16T08:37:13.380Z,8.52
2022-11-16T08:42:16.496Z,7.43
2022-11-16T08:47:19.497Z,8.74
2022-11-16T08:52:22.501Z,7.53
2022-11-16T08:57:25.506Z,8.27
2022-11-16T09:02:28.724Z,7.25
2022-11-16T09:07:31.891Z,7.21
2022-11-16T09:12:35.750Z,8.10
2022-11-16T09:17:38.771Z,6.93
2022-11-16T09:22:42.386Z,8.02
2022-11-16T09:27:45.391Z,6.93
2022-11-16T09:32:48.563Z,7.83
2022-11-16T09:37:51.709Z,7.43
2022-11-16T09:43:22.979Z,7.23
2022-11-16T09:48:26.599Z,7.95
2022-11-16T09:53:39.006Z,7.07
2022-11-16T09:59:04.259Z,7.79
2022-11-16T10:04:13.302Z,6.79
2022-11-16T10:09:17.092Z,7.81
2022-11-16T10:15:14.407Z,6.89
2022-11-16T10:20:44.999Z,7.09
2022-11-16T10:25:55.086Z,8.04
2022-11-16T10:31:18.315Z,6.74
2022-11-16T10:36:27.535Z,7.90
2022-11-16T10:41:41.228Z,6.62
2022-11-16T10:46:52.930Z,6.59
2022-11-16T10:51:56.247Z,7.36
2022-11-16T10:57:04.846Z,6.25
2022-11-16T11:02:26.424Z,7.13
2022-11-16T11:07:32.938Z,6.66
2022-11-16T11:12:38.900Z,6.87
2022-11-16T11:17:45.204Z,7.26
2022-11-16T11:23:02.521Z,6.67
2022-11-16T11:28:07.365Z,7.43
2022-11-16T11:33:12.826Z,6.06
2022-11-16T11:38:16.318Z,7.36
2022-11-16T11:43:24.627Z,6.45
2022-11-16T11:48:49.699Z,6.62
2022-11-16T11:53:58.087Z,7.37
2022-11-16T11:59:04.441Z,6.46
2022-11-16T12:04:28.420Z,7.70
2022-11-16T12:10:05.728Z,6.59
2022-11-16T12:16:02.697Z,7.53
2022-11-16T12:21:18.300Z,6.48
2022-11-16T12:26:33.286Z,6.64
2022-11-16T12:31:59.131Z,6.70
2022-11-16T12:37:15.244Z,6.07
2022-11-16T12:42:30.538Z,6.17
2022-11-16T12:47:54.948Z,7.23
2022-11-16T12:53:20.888Z,5.94
2022-11-16T12:58:35.979Z,7.60
2022-11-16T13:03:48.508Z,6.12
2022-11-16T13:09:11.385Z,7.05
2022-11-16T13:14:39.270Z,5.88
2022-11-16T13:19:46.987Z,6.34
2022-11-16T13:24:59.006Z,7.06
2022-11-16T13:30:02.016Z,6.05
2022-11-16T13:35:06.817Z,7.17
2022-11-16T13:40:38.435Z,5.87
2022-11-16T13:45:59.468Z,7.23
2022-11-16T13:51:06.578Z,5.85
2022-11-16T13:56:09.778Z,7.35
2022-11-16T14:01:14.579Z,5.91
2022-11-16T14:06:20.504Z,7.28
2022-11-16T14:11:34.361Z,5.74
2022-11-16T14:16:45.456Z,7.67
2022-11-16T14:21:59.116Z,5.86
2022-11-16T14:27:02.034Z,6.77
2022-11-16T14:32:27.351Z,5.69
2022-11-16T14:37:35.022Z,7.20
